sensor_id;sensor_type;location;lat;lon;timestamp;temperature;humidity
10123;DHT22;5101;49.038;8.710;2022-10-20T00:01:56;13.40;99.90
10123;DHT22;5101;49.038;8.710;2022-10-20T00:04:21;13.30;99.90
10123;DHT22;5101;49.038;8.710;2022-10-20T00:06:47;13.30;99.90
10123;DHT22;5101;49.038;8.710;2022-10-20T00:09:12;13.30;99.90
10123;DHT22;5101;49.038;8.710;2022-10-20T00:11:38;13.20;99.90
10123;DHT22;5101;49.038;8.710;2022-10-20T00:14:04;13.30;99.90
10123;DHT22;5101;49.038;8.710;2022-10-20T00:16:33;13.30;99.90
10123;DHT22;5101;49.038;8.710;2022-10-20T00:18:59;13.30;99.90
10123;DHT22;5101;49.038;8.710;2022-10-20T00:21:26;13.30;99.90
10123;DHT22;5101;49.038;8.710;2022-10-20T00:23:52;13.30;99.90
10123;DHT22;5101;49.038;8.710;2022-10-20T00:26:28;13.30;99.90
10123;DHT22;5101;49.038;8.710;2022-10-20T00:28:54;13.30;99.90
10123;DHT22;5101;49.038;8.710;2022-10-20T00:31:21;13.20;99.90
10123;DHT22;5101;49.038;8.710;2022-10-20T00:33:47;13.20;99.90
10123;DHT22;5101;49.038;8.710;2022-10-20T00:36:15;13.20;99.90
10123;DHT22;5101;49.038;8.710;2022-10-20T00:38:41;13.20;99.90
10123;DHT22;5101;49.038;8.710;2022-10-20T00:41:07;13.10;99.90
10123;DHT22;5101;49.038;8.710;2022-10-20T00:43:45;13.10;99.90
10123;DHT22;5101;49.038;8.710;2022-10-20T00:46:13;13.10;99.90
10123;DHT22;5101;49.038;8.710;2022-10-20T00:48:40;13.10;99.90
10123;DHT22;5101;49.038;8.710;2022-10-20T00:51:07;13.10;99.90
10123;DHT22;5101;49.038;8.710;2022-10-20T00:53:32;13.00;99.90
10123;DHT22;5101;49.038;8.710;2022-10-20T00:55:59;13.00;99.90
10123;DHT22;5101;49.038;8.710;2022-10-20T00:58:25;13.00;99.90
10123;DHT22;5101;49.038;8.710;2022-10-20T01:00:54;13.00;99.90
10123;DHT22;5101;49.038;8.710;2022-10-20T01:03:29;13.00;99.90
10123;DHT22;5101;49.038;8.710;2022-10-20T01:05:56;13.00;99.90
10123;DHT22;5101;49.038;8.710;2022-10-20T01:08:21;12.90;99.90
10123;DHT22;5101;49.038;8.710;2022-10-20T01:11:05;13.00;99.90
10123;DHT22;5101;49.038;8.710;2022-10-20T01:14:07;12.90;99.90
10123;DHT22;5101;49.038;8.710;2022-10-20T01:19:23;12.80;99.90
10123;DHT22;5101;49.038;8.710;2022-10-20T01:25:38;12.90;99.90
10123;DHT22;5101;49.038;8.710;2022-10-20T01:28:21;12.90;99.90
10123;DHT22;5101;49.038;8.710;2022-10-20T01:30:51;12.90;99.90
10123;DHT22;5101;49.038;8.710;2022-10-20T01:33:29;12.90;99.90
10123;DHT22;5101;49.038;8.710;2022-10-20T01:37:04;12.90;99.90
10123;DHT22;5101;49.038;8.710;2022-10-20T01:41:38;13.00;99.90
10123;DHT22;5101;49.038;8.710;2022-10-20T01:44:08;12.90;99.90
10123;DHT22;5101;49.038;8.710;2022-10-20T01:46:36;12.90;99.90
10123;DHT22;5101;49.038;8.710;2022-10-20T01:49:04;13.00;99.90
10123;DHT22;5101;49.038;8.710;2022-10-20T01:51:31;13.00;99.90
10123;DHT22;5101;49.038;8.710;2022-10-20T01:53:57;13.00;99.90
10123;DHT22;5101;49.038;8.710;2022-10-20T01:56:36;13.00;99.90
10123;DHT22;5101;49.038;8.710;2022-10-20T01:59:31;13.00;99.90
10123;DHT22;5101;49.038;8.710;2022-10-20T02:04:47;13.00;99.90
10123;DHT22;5101;49.038;8.710;2022-10-20T02:07:27;13.00;99.90
10123;DHT22;5101;49.038;8.710;2022-10-20T02:10:02;13.00;99.90
10123;DHT22;5101;49.038;8.710;2022-10-20T02:12:33;13.00;99.90
10123;DHT22;5101;49.038;8.710;2022-10-20T02:15:00;13.00;99.90
10123;DHT22;5101;49.038;8.710;2022-10-20T02:17:28;13.00;99.90
10123;DHT22;5101;49.038;8.710;2022-10-20T02:19:54;13.00;99.90
10123;DHT22;5101;49.038;8.710;2022-10-20T02:22:22;13.10;99.90
10123;DHT22;5101;49.038;8.710;2022-10-20T02:24:49;13.10;99.90
10123;DHT22;5101;49.038;8.710;2022-10-20T02:30:14;13.10;99.90
10123;DHT22;5101;49.038;8.710;2022-10-20T02:32:43;13.10;99.90
10123;DHT22;5101;49.038;8.710;2022-10-20T02:35:18;13.10;99.90
10123;DHT22;5101;49.038;8.710;2022-10-20T02:37:44;13.10;99.90
10123;DHT22;5101;49.038;8.710;2022-10-20T02:40:10;13.20;99.90
10123;DHT22;5101;49.038;8.710;2022-10-20T02:42:36;13.20;99.90
10123;DHT22;5101;49.038;8.710;2022-10-20T02:45:03;13.20;99.90
10123;DHT22;5101;49.038;8.710;2022-10-20T02:47:28;13.20;99.90
10123;DHT22;5101;49.038;8.710;2022-10-20T02:49:54;13.20;99.90
10123;DHT22;5101;49.038;8.710;2022-10-20T02:52:20;13.20;99.90
10123;DHT22;5101;49.038;8.710;2022-10-20T02:54:45;13.20;99.90
10123;DHT22;5101;49.038;8.710;2022-10-20T02:57:11;13.20;99.90
10123;DHT22;5101;49.038;8.710;2022-10-20T02:59:36;13.20;99.90
10123;DHT22;5101;49.038;8.710;2022-10-20T03:02:02;13.20;99.90
10123;DHT22;5101;49.038;8.710;2022-10-20T03:04:27;13.20;99.90
10123;DHT22;5101;49.038;8.710;2022-10-20T03:06:53;13.20;99.90
10123;DHT22;5101;49.038;8.710;2022-10-20T03:09:18;13.20;99.90
10123;DHT22;5101;49.038;8.710;2022-10-20T03:11:44;13.30;99.90
10123;DHT22;5101;49.038;8.710;2022-10-20T03:14:10;13.20;99.90
10123;DHT22;5101;49.038;8.710;2022-10-20T03:16:35;13.20;99.90
10123;DHT22;5101;49.038;8.710;2022-10-20T03:19:01;13.20;99.90
10123;DHT22;5101;49.038;8.710;2022-10-20T03:21:26;13.20;99.90
10123;DHT22;5101;49.038;8.710;2022-10-20T03:23:52;13.30;99.90
10123;DHT22;5101;49.038;8.710;2022-10-20T03:26:17;13.30;99.90
10123;DHT22;5101;49.038;8.710;2022-10-20T03:28:43;13.30;99.90
10123;DHT22;5101;49.038;8.710;2022-10-20T03:31:08;13.30;99.90
10123;DHT22;5101;49.038;8.710;2022-10-20T03:33:34;13.30;99.90
10123;DHT22;5101;49.038;8.710;2022-10-20T03:36:00;13.30;99.90
10123;DHT22;5101;49.038;8.710;2022-10-20T03:38:25;13.30;99.90
10123;DHT22;5101;49.038;8.710;2022-10-20T03:40:51;13.30;99.90
10123;DHT22;5101;49.038;8.710;2022-10-20T03:43:16;13.30;99.90
10123;DHT22;5101;49.038;8.710;2022-10-20T03:45:42;13.30;99.90
10123;DHT22;5101;49.038;8.710;2022-10-20T03:48:08;13.30;99.90
10123;DHT22;5101;49.038;8.710;2022-10-20T03:50:37;13.30;99.90
10123;DHT22;5101;49.038;8.710;2022-10-20T03:53:03;13.40;99.90
10123;DHT22;5101;49.038;8.710;2022-10-20T03:55:28;13.30;99.90
10123;DHT22;5101;49.038;8.710;2022-10-20T03:57:54;13.40;99.90
10123;DHT22;5101;49.038;8.710;2022-10-20T04:00:19;13.40;99.90
10123;DHT22;5101;49.038;8.710;2022-10-20T04:02:45;13.30;99.90
10123;DHT22;5101;49.038;8.710;2022-10-20T04:05:13;13.40;99.90
10123;DHT22;5101;49.038;8.710;2022-10-20T04:07:39;13.40;99.90
10123;DHT22;5101;49.038;8.710;2022-10-20T04:10:04;13.30;99.90
10123;DHT22;5101;49.038;8.710;2022-10-20T04:12:30;13.40;99.90
10123;DHT22;5101;49.038;8.710;2022-10-20T04:14:56;13.40;99.90
10123;DHT22;5101;49.038;8.710;2022-10-20T04:17:21;13.30;99.90
10123;DHT22;5101;49.038;8.710;2022-10-20T04:19:47;13.30;99.90
10123;DHT22;5101;49.038;8.710;2022-10-20T04:22:12;13.30;99.90
10123;DHT22;5101;49.038;8.710;2022-10-20T04:24:38;13.30;99.90
10123;DHT22;5101;49.038;8.710;2022-10-20T04:27:03;13.30;99.90
10123;DHT22;5101;49.038;8.710;2022-10-20T04:29:29;13.40;99.90
10123;DHT22;5101;49.038;8.710;2022-10-20T04:31:54;13.30;99.90
10123;DHT22;5101;49.038;8.710;2022-10-20T04:34:20;13.40;99.90
10123;DHT22;5101;49.038;8.710;2022-10-20T04:36:45;13.30;99.90
10123;DHT22;5101;49.038;8.710;2022-10-20T04:39:12;13.30;99.90
10123;DHT22;5101;49.038;8.710;2022-10-20T04:41:38;13.30;99.90
10123;DHT22;5101;49.038;8.710;2022-10-20T04:44:03;13.30;99.90
10123;DHT22;5101;49.038;8.710;2022-10-20T04:46:29;13.30;99.90
10123;DHT22;5101;49.038;8.710;2022-10-20T04:48:54;13.20;99.90
10123;DHT22;5101;49.038;8.710;2022-10-20T04:51:20;13.20;99.90
10123;DHT22;5101;49.038;8.710;2022-10-20T04:53:46;13.20;99.90
10123;DHT22;5101;49.038;8.710;2022-10-20T04:56:14;13.20;99.90
10123;DHT22;5101;49.038;8.710;2022-10-20T04:58:46;13.10;99.90
10123;DHT22;5101;49.038;8.710;2022-10-20T05:01:12;13.20;99.90
10123;DHT22;5101;49.038;8.710;2022-10-20T05:03:37;13.20;99.90
10123;DHT22;5101;49.038;8.710;2022-10-20T05:06:11;13.10;99.90
10123;DHT22;5101;49.038;8.710;2022-10-20T05:08:38;13.10;99.90
10123;DHT22;5101;49.038;8.710;2022-10-20T05:11:04;13.10;99.90
10123;DHT22;5101;49.038;8.710;2022-10-20T05:13:30;13.10;99.90
10123;DHT22;5101;49.038;8.710;2022-10-20T05:15:55;13.10;99.90
10123;DHT22;5101;49.038;8.710;2022-10-20T05:18:21;13.10;99.90
10123;DHT22;5101;49.038;8.710;2022-10-20T05:20:46;13.10;99.90
10123;DHT22;5101;49.038;8.710;2022-10-20T05:23:12;13.20;99.90
10123;DHT22;5101;49.038;8.710;2022-10-20T05:25:38;13.20;99.90
10123;DHT22;5101;49.038;8.710;2022-10-20T05:28:05;13.20;99.90
10123;DHT22;5101;49.038;8.710;2022-10-20T05:30:32;13.20;99.90
10123;DHT22;5101;49.038;8.710;2022-10-20T05:32:57;13.20;99.90
10123;DHT22;5101;49.038;8.710;2022-10-20T05:35:23;13.10;99.90
10123;DHT22;5101;49.038;8.710;2022-10-20T05:37:48;13.10;99.90
10123;DHT22;5101;49.038;8.710;2022-10-20T05:40:14;13.10;99.90
10123;DHT22;5101;49.038;8.710;2022-10-20T05:42:39;13.10;99.90
10123;DHT22;5101;49.038;8.710;2022-10-20T05:45:06;13.20;99.90
10123;DHT22;5101;49.038;8.710;2022-10-20T05:47:32;13.20;99.90
10123;DHT22;5101;49.038;8.710;2022-10-20T05:49:58;13.20;99.90
10123;DHT22;5101;49.038;8.710;2022-10-20T05:52:23;13.20;99.90
10123;DHT22;5101;49.038;8.710;2022-10-20T05:54:49;13.20;99.90
10123;DHT22;5101;49.038;8.710;2022-10-20T05:57:14;13.20;99.90
10123;DHT22;5101;49.038;8.710;2022-10-20T05:59:40;13.30;99.90
10123;DHT22;5101;49.038;8.710;2022-10-20T06:02:05;13.20;99.90
10123;DHT22;5101;49.038;8.710;2022-10-20T06:04:31;13.30;99.90
10123;DHT22;5101;49.038;8.710;2022-10-20T06:06:57;13.30;99.90
10123;DHT22;5101;49.038;8.710;2022-10-20T06:09:23;13.30;99.90
10123;DHT22;5101;49.038;8.710;2022-10-20T06:11:49;13.30;99.90
10123;DHT22;5101;49.038;8.710;2022-10-20T06:14:15;13.30;99.90
10123;DHT22;5101;49.038;8.710;2022-10-20T06:16:41;13.30;99.90
10123;DHT22;5101;49.038;8.710;2022-10-20T06:19:07;13.30;99.90
10123;DHT22;5101;49.038;8.710;2022-10-20T06:21:34;13.30;99.90
10123;DHT22;5101;49.038;8.710;2022-10-20T06:24:02;13.40;99.90
10123;DHT22;5101;49.038;8.710;2022-10-20T06:26:30;13.30;99.90
10123;DHT22;5101;49.038;8.710;2022-10-20T06:29:00;13.40;99.90
10123;DHT22;5101;49.038;8.710;2022-10-20T06:31:30;13.40;99.90
10123;DHT22;5101;49.038;8.710;2022-10-20T06:33:56;13.40;99.90
10123;DHT22;5101;49.038;8.710;2022-10-20T06:36:24;13.40;99.90
10123;DHT22;5101;49.038;8.710;2022-10-20T06:38:57;13.50;99.90
10123;DHT22;5101;49.038;8.710;2022-10-20T06:41:25;13.60;99.90
10123;DHT22;5101;49.038;8.710;2022-10-20T06:43:52;13.60;99.90
10123;DHT22;5101;49.038;8.710;2022-10-20T06:46:23;13.60;99.90
10123;DHT22;5101;49.038;8.710;2022-10-20T06:48:48;13.70;99.90
10123;DHT22;5101;49.038;8.710;2022-10-20T06:51:16;13.70;99.90
10123;DHT22;5101;49.038;8.710;2022-10-20T06:53:49;13.70;99.90
10123;DHT22;5101;49.038;8.710;2022-10-20T06:58:43;13.80;99.90
10123;DHT22;5101;49.038;8.710;2022-10-20T07:03:41;13.90;99.90
10123;DHT22;5101;49.038;8.710;2022-10-20T07:06:07;14.00;99.90
10123;DHT22;5101;49.038;8.710;2022-10-20T07:08:35;14.10;99.90
10123;DHT22;5101;49.038;8.710;2022-10-20T07:11:02;14.20;99.90
10123;DHT22;5101;49.038;8.710;2022-10-20T07:13:29;14.20;99.90
10123;DHT22;5101;49.038;8.710;2022-10-20T07:15:56;14.30;99.90
10123;DHT22;5101;49.038;8.710;2022-10-20T07:18:23;14.30;99.90
10123;DHT22;5101;49.038;8.710;2022-10-20T07:20:48;14.40;99.90
10123;DHT22;5101;49.038;8.710;2022-10-20T07:23:14;14.50;99.90
10123;DHT22;5101;49.038;8.710;2022-10-20T07:25:40;14.60;99.90
10123;DHT22;5101;49.038;8.710;2022-10-20T07:28:06;14.70;99.90
10123;DHT22;5101;49.038;8.710;2022-10-20T07:30:31;14.80;99.90
10123;DHT22;5101;49.038;8.710;2022-10-20T07:33:01;15.00;99.90
10123;DHT22;5101;49.038;8.710;2022-10-20T07:35:28;15.00;99.90
10123;DHT22;5101;49.038;8.710;2022-10-20T07:37:54;15.10;99.90
10123;DHT22;5101;49.038;8.710;2022-10-20T07:40:19;15.20;99.90
10123;DHT22;5101;49.038;8.710;2022-10-20T07:42:45;15.30;99.90
10123;DHT22;5101;49.038;8.710;2022-10-20T07:45:10;15.40;99.90
10123;DHT22;5101;49.038;8.710;2022-10-20T07:47:36;15.50;99.90
10123;DHT22;5101;49.038;8.710;2022-10-20T07:50:02;15.60;99.90
10123;DHT22;5101;49.038;8.710;2022-10-20T07:52:27;15.80;99.90
10123;DHT22;5101;49.038;8.710;2022-10-20T07:54:56;15.90;99.90
10123;DHT22;5101;49.038;8.710;2022-10-20T07:57:21;16.20;99.90
10123;DHT22;5101;49.038;8.710;2022-10-20T07:59:47;16.30;99.90
10123;DHT22;5101;49.038;8.710;2022-10-20T08:02:12;16.50;99.90
10123;DHT22;5101;49.038;8.710;2022-10-20T08:04:40;16.60;99.90
10123;DHT22;5101;49.038;8.710;2022-10-20T08:07:11;16.80;99.90
10123;DHT22;5101;49.038;8.710;2022-10-20T08:09:36;17.00;99.90
10123;DHT22;5101;49.038;8.710;2022-10-20T08:12:02;17.20;99.90
10123;DHT22;5101;49.038;8.710;2022-10-20T08:14:28;17.20;99.90
10123;DHT22;5101;49.038;8.710;2022-10-20T08:16:58;17.40;99.90
10123;DHT22;5101;49.038;8.710;2022-10-20T08:19:24;17.70;99.90
10123;DHT22;5101;49.038;8.710;2022-10-20T08:21:50;18.00;99.90
10123;DHT22;5101;49.038;8.710;2022-10-20T08:24:15;18.30;99.50
10123;DHT22;5101;49.038;8.710;2022-10-20T08:26:41;18.50;98.70
10123;DHT22;5101;49.038;8.710;2022-10-20T08:29:06;18.80;97.90
10123;DHT22;5101;49.038;8.710;2022-10-20T08:31:32;18.90;97.30
10123;DHT22;5101;49.038;8.710;2022-10-20T08:33:57;19.00;96.70
10123;DHT22;5101;49.038;8.710;2022-10-20T08:36:24;19.10;96.20
10123;DHT22;5101;49.038;8.710;2022-10-20T08:38:49;19.40;95.70
10123;DHT22;5101;49.038;8.710;2022-10-20T08:41:21;19.50;95.30
10123;DHT22;5101;49.038;8.710;2022-10-20T08:43:51;19.80;94.70
10123;DHT22;5101;49.038;8.710;2022-10-20T08:46:19;20.00;94.30
10123;DHT22;5101;49.038;8.710;2022-10-20T08:48:47;20.20;93.50
10123;DHT22;5101;49.038;8.710;2022-10-20T08:51:18;20.60;92.60
10123;DHT22;5101;49.038;8.710;2022-10-20T08:53:46;21.00;91.80
10123;DHT22;5101;49.038;8.710;2022-10-20T08:56:13;21.10;91.30
10123;DHT22;5101;49.038;8.710;2022-10-20T08:58:43;21.30;90.70
10123;DHT22;5101;49.038;8.710;2022-10-20T09:01:33;21.50;90.10
10123;DHT22;5101;49.038;8.710;2022-10-20T09:04:21;21.80;89.00
10123;DHT22;5101;49.038;8.710;2022-10-20T09:06:52;22.20;86.90
10123;DHT22;5101;49.038;8.710;2022-10-20T09:09:20;22.30;86.20
10123;DHT22;5101;49.038;8.710;2022-10-20T09:11:46;22.60;85.60
10123;DHT22;5101;49.038;8.710;2022-10-20T09:14:12;22.80;84.30
10123;DHT22;5101;49.038;8.710;2022-10-20T09:16:40;23.00;82.70
10123;DHT22;5101;49.038;8.710;2022-10-20T09:19:14;23.10;81.60
10123;DHT22;5101;49.038;8.710;2022-10-20T09:21:41;23.10;80.40
10123;DHT22;5101;49.038;8.710;2022-10-20T09:24:07;23.20;80.10
10123;DHT22;5101;49.038;8.710;2022-10-20T09:26:36;23.10;79.80
10123;DHT22;5101;49.038;8.710;2022-10-20T09:31:34;23.50;79.40
10123;DHT22;5101;49.038;8.710;2022-10-20T09:34:01;23.70;78.30
10123;DHT22;5101;49.038;8.710;2022-10-20T09:36:32;23.80;77.90
10123;DHT22;5101;49.038;8.710;2022-10-20T09:38:59;23.90;77.00
10123;DHT22;5101;49.038;8.710;2022-10-20T09:41:28;23.90;76.80
10123;DHT22;5101;49.038;8.710;2022-10-20T09:43:58;23.90;76.50
10123;DHT22;5101;49.038;8.710;2022-10-20T09:46:30;23.80;76.10
10123;DHT22;5101;49.038;8.710;2022-10-20T09:48:57;23.80;75.60
10123;DHT22;5101;49.038;8.710;2022-10-20T09:51:27;23.60;76.10
10123;DHT22;5101;49.038;8.710;2022-10-20T09:54:14;23.40;76.70
10123;DHT22;5101;49.038;8.710;2022-10-20T09:56:42;23.30;77.10
10123;DHT22;5101;49.038;8.710;2022-10-20T09:59:23;23.20;77.70
10123;DHT22;5101;49.038;8.710;2022-10-20T10:02:08;23.10;78.30
10123;DHT22;5101;49.038;8.710;2022-10-20T10:04:50;23.30;79.20
10123;DHT22;5101;49.038;8.710;2022-10-20T10:12:22;23.10;79.50
10123;DHT22;5101;49.038;8.710;2022-10-20T10:17:30;22.80;78.70
10123;DHT22;5101;49.038;8.710;2022-10-20T10:19:56;22.70;79.00
10123;DHT22;5101;49.038;8.710;2022-10-20T10:22:22;22.70;79.40
10123;DHT22;5101;49.038;8.710;2022-10-20T10:24:48;22.70;79.50
10123;DHT22;5101;49.038;8.710;2022-10-20T10:27:28;22.70;79.50
10123;DHT22;5101;49.038;8.710;2022-10-20T10:30:18;22.70;79.40
10123;DHT22;5101;49.038;8.710;2022-10-20T10:32:46;22.60;79.40
10123;DHT22;5101;49.038;8.710;2022-10-20T10:37:57;22.50;81.20
10123;DHT22;5101;49.038;8.710;2022-10-20T10:46:13;22.30;81.40
10123;DHT22;5101;49.038;8.710;2022-10-20T10:49:02;22.30;81.60
10123;DHT22;5101;49.038;8.710;2022-10-20T10:57:42;22.10;82.30
10123;DHT22;5101;49.038;8.710;2022-10-20T11:00:19;22.10;82.60
10123;DHT22;5101;49.038;8.710;2022-10-20T11:02:59;22.10;82.70
10123;DHT22;5101;49.038;8.710;2022-10-20T11:06:01;21.90;83.20
10123;DHT22;5101;49.038;8.710;2022-10-20T11:08:44;21.80;83.70
10123;DHT22;5101;49.038;8.710;2022-10-20T11:11:35;21.80;83.90
10123;DHT22;5101;49.038;8.710;2022-10-20T11:14:24;21.70;84.40
10123;DHT22;5101;49.038;8.710;2022-10-20T11:16:55;21.60;85.80
10123;DHT22;5101;49.038;8.710;2022-10-20T11:19:55;21.60;86.40
10123;DHT22;5101;49.038;8.710;2022-10-20T11:22:40;21.60;87.00
10123;DHT22;5101;49.038;8.710;2022-10-20T11:25:43;21.60;87.90
10123;DHT22;5101;49.038;8.710;2022-10-20T11:28:27;21.60;88.10
10123;DHT22;5101;49.038;8.710;2022-10-20T11:30:55;21.50;88.20
10123;DHT22;5101;49.038;8.710;2022-10-20T11:33:27;21.40;88.20
10123;DHT22;5101;49.038;8.710;2022-10-20T11:36:04;21.30;88.00
10123;DHT22;5101;49.038;8.710;2022-10-20T11:41:47;21.30;88.20
10123;DHT22;5101;49.038;8.710;2022-10-20T11:44:30;21.20;88.50
10123;DHT22;5101;49.038;8.710;2022-10-20T11:47:07;21.10;89.00
10123;DHT22;5101;49.038;8.710;2022-10-20T11:49:37;21.10;89.70
10123;DHT22;5101;49.038;8.710;2022-10-20T11:58:07;20.80;90.40
10123;DHT22;5101;49.038;8.710;2022-10-20T12:01:09;20.70;90.70
10123;DHT22;5101;49.038;8.710;2022-10-20T12:07:19;20.70;91.20
10123;DHT22;5101;49.038;8.710;2022-10-20T12:10:01;20.70;91.20
10123;DHT22;5101;49.038;8.710;2022-10-20T12:12:42;20.60;91.20
10123;DHT22;5101;49.038;8.710;2022-10-20T12:15:45;20.50;91.30
10123;DHT22;5101;49.038;8.710;2022-10-20T12:18:25;20.60;91.50
10123;DHT22;5101;49.038;8.710;2022-10-20T12:20:55;20.60;91.30
10123;DHT22;5101;49.038;8.710;2022-10-20T12:28:58;20.50;91.50
10123;DHT22;5101;49.038;8.710;2022-10-20T12:31:24;20.40;91.70
10123;DHT22;5101;49.038;8.710;2022-10-20T12:34:21;20.30;92.00
10123;DHT22;5101;49.038;8.710;2022-10-20T12:36:47;20.30;92.30
10123;DHT22;5101;49.038;8.710;2022-10-20T12:39:14;20.30;92.30
10123;DHT22;5101;49.038;8.710;2022-10-20T12:41:55;20.30;92.50
10123;DHT22;5101;49.038;8.710;2022-10-20T12:44:22;20.30;92.80
10123;DHT22;5101;49.038;8.710;2022-10-20T12:46:53;20.20;93.00
10123;DHT22;5101;49.038;8.710;2022-10-20T12:49:35;20.20;93.30
10123;DHT22;5101;49.038;8.710;2022-10-20T12:52:03;20.10;93.30
10123;DHT22;5101;49.038;8.710;2022-10-20T12:54:38;20.10;93.30
10123;DHT22;5101;49.038;8.710;2022-10-20T12:57:30;19.90;93.60
10123;DHT22;5101;49.038;8.710;2022-10-20T12:59:59;19.80;94.10
10123;DHT22;5101;49.038;8.710;2022-10-20T13:02:29;19.70;94.10
10123;DHT22;5101;49.038;8.710;2022-10-20T13:04:59;19.60;94.60
10123;DHT22;5101;49.038;8.710;2022-10-20T13:20:39;19.40;95.60
10123;DHT22;5101;49.038;8.710;2022-10-20T13:23:09;19.40;95.90
10123;DHT22;5101;49.038;8.710;2022-10-20T13:25:39;19.40;96.10
10123;DHT22;5101;49.038;8.710;2022-10-20T13:28:14;19.50;96.30
10123;DHT22;5101;49.038;8.710;2022-10-20T13:41:50;19.50;96.50
10123;DHT22;5101;49.038;8.710;2022-10-20T13:50:29;19.50;96.60
10123;DHT22;5101;49.038;8.710;2022-10-20T13:52:58;19.50;96.70
10123;DHT22;5101;49.038;8.710;2022-10-20T13:55:28;19.60;96.70
10123;DHT22;5101;49.038;8.710;2022-10-20T13:57:56;19.60;97.00
10123;DHT22;5101;49.038;8.710;2022-10-20T14:00:27;19.60;97.00
10123;DHT22;5101;49.038;8.710;2022-10-20T14:02:55;19.60;97.00
10123;DHT22;5101;49.038;8.710;2022-10-20T14:05:22;19.60;97.00
10123;DHT22;5101;49.038;8.710;2022-10-20T14:07:48;19.60;97.10
10123;DHT22;5101;49.038;8.710;2022-10-20T14:10:36;19.60;97.10
10123;DHT22;5101;49.038;8.710;2022-10-20T14:13:06;19.60;97.10
10123;DHT22;5101;49.038;8.710;2022-10-20T14:15:34;19.60;96.90
10123;DHT22;5101;49.038;8.710;2022-10-20T14:18:05;19.60;96.70
10123;DHT22;5101;49.038;8.710;2022-10-20T14:20:34;19.60;96.70
10123;DHT22;5101;49.038;8.710;2022-10-20T14:23:02;19.60;97.00
10123;DHT22;5101;49.038;8.710;2022-10-20T14:25:29;19.60;97.30
10123;DHT22;5101;49.038;8.710;2022-10-20T14:27:56;19.60;97.50
10123;DHT22;5101;49.038;8.710;2022-10-20T14:30:22;19.50;97.60
10123;DHT22;5101;49.038;8.710;2022-10-20T14:32:49;19.50;98.00
10123;DHT22;5101;49.038;8.710;2022-10-20T14:35:22;19.40;98.20
10123;DHT22;5101;49.038;8.710;2022-10-20T14:38:30;19.40;98.40
10123;DHT22;5101;49.038;8.710;2022-10-20T14:40:51;19.40;98.90
10123;DHT22;5101;49.038;8.710;2022-10-20T14:46:05;19.40;99.00
10123;DHT22;5101;49.038;8.710;2022-10-20T14:48:37;19.30;98.80
10123;DHT22;5101;49.038;8.710;2022-10-20T14:56:57;19.30;99.00
10123;DHT22;5101;49.038;8.710;2022-10-20T14:59:33;19.20;99.00
10123;DHT22;5101;49.038;8.710;2022-10-20T15:02:12;19.20;99.00
10123;DHT22;5101;49.038;8.710;2022-10-20T15:04:39;19.10;99.10
10123;DHT22;5101;49.038;8.710;2022-10-20T15:09:40;19.10;99.10
10123;DHT22;5101;49.038;8.710;2022-10-20T15:12:30;19.10;99.20
10123;DHT22;5101;49.038;8.710;2022-10-20T15:15:35;19.10;99.30
10123;DHT22;5101;49.038;8.710;2022-10-20T15:18:16;19.10;99.40
10123;DHT22;5101;49.038;8.710;2022-10-20T15:20:43;19.10;99.80
10123;DHT22;5101;49.038;8.710;2022-10-20T15:23:26;19.10;99.70
10123;DHT22;5101;49.038;8.710;2022-10-20T15:26:05;19.10;99.90
10123;DHT22;5101;49.038;8.710;2022-10-20T15:28:45;19.10;99.90
10123;DHT22;5101;49.038;8.710;2022-10-20T15:31:24;19.10;99.90
10123;DHT22;5101;49.038;8.710;2022-10-20T15:33:51;19.10;99.90
10123;DHT22;5101;49.038;8.710;2022-10-20T15:36:26;19.10;99.90
10123;DHT22;5101;49.038;8.710;2022-10-20T15:38:54;19.00;99.90
10123;DHT22;5101;49.038;8.710;2022-10-20T15:41:29;19.00;99.90
10123;DHT22;5101;49.038;8.710;2022-10-20T15:43:55;19.00;99.90
10123;DHT22;5101;49.038;8.710;2022-10-20T15:46:20;18.90;99.90
10123;DHT22;5101;49.038;8.710;2022-10-20T15:48:47;18.90;99.90
10123;DHT22;5101;49.038;8.710;2022-10-20T15:51:21;18.90;99.90
10123;DHT22;5101;49.038;8.710;2022-10-20T15:53:48;18.90;99.90
10123;DHT22;5101;49.038;8.710;2022-10-20T15:56:15;18.90;99.90
10123;DHT22;5101;49.038;8.710;2022-10-20T15:58:41;18.80;99.90
10123;DHT22;5101;49.038;8.710;2022-10-20T16:01:06;18.70;99.90
10123;DHT22;5101;49.038;8.710;2022-10-20T16:03:33;18.70;99.90
10123;DHT22;5101;49.038;8.710;2022-10-20T16:06:00;18.70;99.90
10123;DHT22;5101;49.038;8.710;2022-10-20T16:08:25;18.60;99.90
10123;DHT22;5101;49.038;8.710;2022-10-20T16:10:51;18.60;99.90
10123;DHT22;5101;49.038;8.710;2022-10-20T16:13:16;18.60;99.90
10123;DHT22;5101;49.038;8.710;2022-10-20T16:15:45;18.50;99.90
10123;DHT22;5101;49.038;8.710;2022-10-20T16:18:10;18.50;99.90
10123;DHT22;5101;49.038;8.710;2022-10-20T16:20:36;18.50;99.90
10123;DHT22;5101;49.038;8.710;2022-10-20T16:23:01;18.40;99.90
10123;DHT22;5101;49.038;8.710;2022-10-20T16:25:27;18.30;99.90
10123;DHT22;5101;49.038;8.710;2022-10-20T16:27:52;18.20;99.90
10123;DHT22;5101;49.038;8.710;2022-10-20T16:30:18;18.10;99.90
10123;DHT22;5101;49.038;8.710;2022-10-20T16:32:44;18.10;99.90
10123;DHT22;5101;49.038;8.710;2022-10-20T16:35:09;18.10;99.90
10123;DHT22;5101;49.038;8.710;2022-10-20T16:37:35;18.00;99.90
10123;DHT22;5101;49.038;8.710;2022-10-20T16:40:01;17.90;99.90
10123;DHT22;5101;49.038;8.710;2022-10-20T16:42:29;17.80;99.90
10123;DHT22;5101;49.038;8.710;2022-10-20T16:44:55;17.80;99.90
10123;DHT22;5101;49.038;8.710;2022-10-20T16:47:21;17.80;99.90
10123;DHT22;5101;49.038;8.710;2022-10-20T16:49:46;17.80;99.90
10123;DHT22;5101;49.038;8.710;2022-10-20T16:52:12;17.80;99.90
10123;DHT22;5101;49.038;8.710;2022-10-20T16:54:37;17.80;99.90
10123;DHT22;5101;49.038;8.710;2022-10-20T16:57:03;17.70;99.90
10123;DHT22;5101;49.038;8.710;2022-10-20T16:59:31;17.60;99.90
10123;DHT22;5101;49.038;8.710;2022-10-20T17:01:56;17.60;99.90
10123;DHT22;5101;49.038;8.710;2022-10-20T17:04:22;17.60;99.90
10123;DHT22;5101;49.038;8.710;2022-10-20T17:06:48;17.50;99.90
10123;DHT22;5101;49.038;8.710;2022-10-20T17:09:14;17.50;99.90
10123;DHT22;5101;49.038;8.710;2022-10-20T17:11:39;17.50;99.90
10123;DHT22;5101;49.038;8.710;2022-10-20T17:14:05;17.50;99.90
10123;DHT22;5101;49.038;8.710;2022-10-20T17:16:33;17.50;99.90
10123;DHT22;5101;49.038;8.710;2022-10-20T17:19:00;17.50;99.90
10123;DHT22;5101;49.038;8.710;2022-10-20T17:21:27;17.40;99.90
10123;DHT22;5101;49.038;8.710;2022-10-20T17:23:53;17.40;99.90
10123;DHT22;5101;49.038;8.710;2022-10-20T17:26:20;17.40;99.90
10123;DHT22;5101;49.038;8.710;2022-10-20T17:28:47;17.40;99.90
10123;DHT22;5101;49.038;8.710;2022-10-20T17:31:14;17.40;99.90
10123;DHT22;5101;49.038;8.710;2022-10-20T17:33:40;17.40;99.90
10123;DHT22;5101;49.038;8.710;2022-10-20T17:36:07;17.30;99.90
10123;DHT22;5101;49.038;8.710;2022-10-20T17:38:33;17.30;99.90
10123;DHT22;5101;49.038;8.710;2022-10-20T17:41:07;17.30;99.90
10123;DHT22;5101;49.038;8.710;2022-10-20T17:43:33;17.30;99.90
10123;DHT22;5101;49.038;8.710;2022-10-20T17:46:01;17.20;99.90